sensor_id;sensor_type;location;lat;lon;timestamp;pressure;altitude;pressure_sealevel;temperature
71897;BMP280;59767;51.344;12.362;2023-08-20T08:48:58;165636.91;;;26.84
71897;BMP280;59767;51.344;12.362;2023-08-20T08:51:42;165660.59;;;26.93
71897;BMP280;59767;51.344;12.362;2023-08-20T08:54:47;165677.72;;;26.99
71897;BMP280;59767;51.344;12.362;2023-08-20T08:57:51;165686.94;;;27.03
71897;BMP280;59767;51.344;12.362;2023-08-20T09:00:56;165648.78;;;26.88
71897;BMP280;59767;51.344;12.362;2023-08-20T09:04:01;165605.31;;;26.72
71897;BMP280;59767;51.344;12.362;2023-08-20T09:07:05;165642.19;;;26.86
71897;BMP280;59767;51.344;12.362;2023-08-20T09:10:10;165656.66;;;26.91
71897;BMP280;59767;51.344;12.362;2023-08-20T09:13:14;165607.97;;;26.73
71897;BMP280;59767;51.344;12.362;2023-08-20T09:16:18;165634.28;;;26.83
71897;BMP280;59767;51.344;12.362;2023-08-20T09:19:22;165702.72;;;27.09
71897;BMP280;59767;51.344;12.362;2023-08-20T09:22:27;165768.56;;;27.34
71897;BMP280;59767;51.344;12.362;2023-08-20T09:25:32;165740.97;;;27.23
71897;BMP280;59767;51.344;12.362;2023-08-20T09:28:44;165714.59;;;27.13
71897;BMP280;59767;51.344;12.362;2023-08-20T09:31:49;165727.75;;;27.18
71897;BMP280;59767;51.344;12.362;2023-08-20T09:34:55;165773.88;;;27.36
71897;BMP280;59767;51.344;12.362;2023-08-20T09:38:00;165873.91;;;27.74
71897;BMP280;59767;51.344;12.362;2023-08-20T09:41:05;165939.56;;;28.05
71897;BMP280;59767;51.344;12.362;2023-08-20T09:44:13;165051.84;;;28.20
71897;BMP280;59767;51.344;12.362;2023-08-20T09:47:20;165922.28;;;28.05
71897;BMP280;59767;51.344;12.362;2023-08-20T09:50:25;165935.81;;;27.97
71897;BMP280;59767;51.344;12.362;2023-08-20T09:53:35;165813.34;;;27.51
71897;BMP280;59767;51.344;12.362;2023-08-20T09:56:43;165762.00;;;27.31
71897;BMP280;59767;51.344;12.362;2023-08-20T09:59:49;165758.03;;;27.30
71897;BMP280;59767;51.344;12.362;2023-08-20T10:02:55;165773.88;;;27.36
71897;BMP280;59767;51.344;12.362;2023-08-20T10:06:00;165661.94;;;26.93
71897;BMP280;59767;51.344;12.362;2023-08-20T10:09:06;165700.09;;;27.08
71897;BMP280;59767;51.344;12.362;2023-08-20T10:12:12;165697.47;;;27.07
71897;BMP280;59767;51.344;12.362;2023-08-20T10:15:17;165717.19;;;27.14
71897;BMP280;59767;51.344;12.362;2023-08-20T10:18:22;165742.19;;;27.24
71897;BMP280;59767;51.344;12.362;2023-08-20T10:21:26;165772.53;;;27.35
71897;BMP280;59767;51.344;12.362;2023-08-20T10:24:44;165793.59;;;27.43
71897;BMP280;59767;51.344;12.362;2023-08-20T10:27:51;165797.56;;;27.45
71897;BMP280;59767;51.344;12.362;2023-08-20T10:31:09;165808.09;;;27.49
71897;BMP280;59767;51.344;12.362;2023-08-20T10:34:31;165844.97;;;27.63
71897;BMP280;59767;51.344;12.362;2023-08-20T10:37:37;165814.63;;;27.51
71897;BMP280;59767;51.344;12.362;2023-08-20T10:40:57;165817.25;;;27.52
71897;BMP280;59767;51.344;12.362;2023-08-20T10:44:02;165808.09;;;27.49
71897;BMP280;59767;51.344;12.362;2023-08-20T10:47:07;165809.38;;;27.49
71897;BMP280;59767;51.344;12.362;2023-08-20T10:50:15;165826.50;;;27.56
71897;BMP280;59767;51.344;12.362;2023-08-20T10:53:22;165837.09;;;27.60
71897;BMP280;59767;51.344;12.362;2023-08-20T10:56:47;165875.22;;;27.74
71897;BMP280;59767;51.344;12.362;2023-08-20T10:59:58;165947.66;;;28.02
71897;BMP280;59767;51.344;12.362;2023-08-20T11:03:02;165870.22;;;28.08
71897;BMP280;59767;51.344;12.362;2023-08-20T11:06:07;165307.75;;;28.16
71897;BMP280;59767;51.344;12.362;2023-08-20T11:09:11;163796.16;;;28.36
71897;BMP280;59767;51.344;12.362;2023-08-20T11:12:15;162993.97;;;28.43
71897;BMP280;59767;51.344;12.362;2023-08-20T11:15:20;163580.25;;;28.38
71897;BMP280;59767;51.344;12.362;2023-08-20T11:18:24;162700.63;;;28.47
71897;BMP280;59767;51.344;12.362;2023-08-20T11:21:29;161093.56;;;28.61
71897;BMP280;59767;51.344;12.362;2023-08-20T11:24:33;161144.41;;;28.59
71897;BMP280;59767;51.344;12.362;2023-08-20T11:27:43;160808.50;;;28.63
71897;BMP280;59767;51.344;12.362;2023-08-20T11:30:49;159363.28;;;28.73
71897;BMP280;59767;51.344;12.362;2023-08-20T11:33:53;159847.91;;;28.71
71897;BMP280;59767;51.344;12.362;2023-08-20T11:36:57;159393.78;;;28.73
71897;BMP280;59767;51.344;12.362;2023-08-20T11:40:01;158162.13;;;28.80
71897;BMP280;59767;51.344;12.362;2023-08-20T11:43:06;156717.50;;;28.88
71897;BMP280;59767;51.344;12.362;2023-08-20T11:46:14;154955.25;;;28.98
71897;BMP280;59767;51.344;12.362;2023-08-20T11:49:27;156296.97;;;28.90
71897;BMP280;59767;51.344;12.362;2023-08-20T11:52:38;153953.97;;;29.06
71897;BMP280;59767;51.344;12.362;2023-08-20T11:55:45;153616.19;;;29.07
71897;BMP280;59767;51.344;12.362;2023-08-20T11:58:50;153957.59;;;29.08
71897;BMP280;59767;51.344;12.362;2023-08-20T12:01:58;158697.41;;;28.77
71897;BMP280;59767;51.344;12.362;2023-08-20T12:05:04;160023.97;;;28.68
71897;BMP280;59767;51.344;12.362;2023-08-20T12:08:15;160384.84;;;28.66
71897;BMP280;59767;51.344;12.362;2023-08-20T12:11:24;161536.00;;;28.57
71897;BMP280;59767;51.344;12.362;2023-08-20T12:14:28;159780.13;;;28.70
71897;BMP280;59767;51.344;12.362;2023-08-20T12:17:33;158267.28;;;28.79
71897;BMP280;59767;51.344;12.362;2023-08-20T12:20:39;159814.72;;;28.70
71897;BMP280;59767;51.344;12.362;2023-08-20T12:23:43;158640.09;;;28.77
71897;BMP280;59767;51.344;12.362;2023-08-20T12:26:47;157869.31;;;28.81
71897;BMP280;59767;51.344;12.362;2023-08-20T12:29:51;156198.34;;;28.91
71897;BMP280;59767;51.344;12.362;2023-08-20T12:32:55;156779.94;;;28.89
71897;BMP280;59767;51.344;12.362;2023-08-20T12:35:59;158885.19;;;28.75
71897;BMP280;59767;51.344;12.362;2023-08-20T12:39:04;160329.09;;;28.65
71897;BMP280;59767;51.344;12.362;2023-08-20T12:42:08;159888.00;;;28.70
71897;BMP280;59767;51.344;12.362;2023-08-20T12:45:13;158248.63;;;28.79
71897;BMP280;59767;51.344;12.362;2023-08-20T12:48:17;155627.28;;;28.95
71897;BMP280;59767;51.344;12.362;2023-08-20T12:51:22;157168.66;;;28.87
71897;BMP280;59767;51.344;12.362;2023-08-20T12:54:25;158986.31;;;28.75
71897;BMP280;59767;51.344;12.362;2023-08-20T12:57:30;159631.06;;;28.70
71897;BMP280;59767;51.344;12.362;2023-08-20T13:00:34;160647.22;;;28.65
71897;BMP280;59767;51.344;12.362;2023-08-20T13:03:38;159649.44;;;28.72
71897;BMP280;59767;51.344;12.362;2023-08-20T13:06:43;159532.47;;;28.71
71897;BMP280;59767;51.344;12.362;2023-08-20T13:09:47;159119.38;;;28.75
71897;BMP280;59767;51.344;12.362;2023-08-20T13:12:53;157111.41;;;28.87
71897;BMP280;59767;51.344;12.362;2023-08-20T13:15:58;153951.56;;;29.05
71897;BMP280;59767;51.344;12.362;2023-08-20T13:19:04;151942.09;;;29.18
71897;BMP280;59767;51.344;12.362;2023-08-20T13:22:08;149943.78;;;29.36
71897;BMP280;59767;51.344;12.362;2023-08-20T13:25:12;148262.16;;;29.43
71897;BMP280;59767;51.344;12.362;2023-08-20T13:28:16;147930.53;;;29.47
71897;BMP280;59767;51.344;12.362;2023-08-20T13:31:21;146927.63;;;29.54
71897;BMP280;59767;51.344;12.362;2023-08-20T13:34:26;148932.38;;;29.39
71897;BMP280;59767;51.344;12.362;2023-08-20T13:37:31;149600.31;;;29.34
71897;BMP280;59767;51.344;12.362;2023-08-20T13:40:35;148598.47;;;29.42
71897;BMP280;59767;51.344;12.362;2023-08-20T13:43:39;146928.81;;;29.54
71897;BMP280;59767;51.344;12.362;2023-08-20T13:46:43;145254.88;;;29.65
71897;BMP280;59767;51.344;12.362;2023-08-20T13:49:48;142914.88;;;29.80
71897;BMP280;59767;51.344;12.362;2023-08-20T13:52:52;141914.78;;;29.88
71897;BMP280;59767;51.344;12.362;2023-08-20T13:55:56;142251.81;;;29.87
71897;BMP280;59767;51.344;12.362;2023-08-20T13:59:00;143250.88;;;29.79
71897;BMP280;59767;51.344;12.362;2023-08-20T14:02:05;142581.09;;;29.83
71897;BMP280;59767;51.344;12.362;2023-08-20T14:05:10;143921.88;;;29.76
71897;BMP280;59767;51.344;12.362;2023-08-20T14:08:14;146258.72;;;29.58
71897;BMP280;59767;51.344;12.362;2023-08-20T14:11:18;146258.72;;;29.58
71897;BMP280;59767;51.344;12.362;2023-08-20T14:14:23;149268.72;;;29.38
71897;BMP280;59767;51.344;12.362;2023-08-20T14:17:27;152610.25;;;29.13
71897;BMP280;59767;51.344;12.362;2023-08-20T14:20:32;156937.22;;;28.87
71897;BMP280;59767;51.344;12.362;2023-08-20T14:23:36;158001.06;;;28.80
71897;BMP280;59767;51.344;12.362;2023-08-20T14:26:40;159849.31;;;28.70
71897;BMP280;59767;51.344;12.362;2023-08-20T14:29:45;160530.09;;;28.65
71897;BMP280;59767;51.344;12.362;2023-08-20T14:32:49;161959.88;;;28.52
71897;BMP280;59767;51.344;12.362;2023-08-20T14:35:54;162580.78;;;28.47
71897;BMP280;59767;51.344;12.362;2023-08-20T14:38:58;162267.66;;;28.50
71897;BMP280;59767;51.344;12.362;2023-08-20T14:42:02;162867.22;;;28.46
71897;BMP280;59767;51.344;12.362;2023-08-20T14:45:07;162327.50;;;28.50
71897;BMP280;59767;51.344;12.362;2023-08-20T14:48:11;162063.75;;;28.52
71897;BMP280;59767;51.344;12.362;2023-08-20T14:51:15;161184.34;;;28.59
71897;BMP280;59767;51.344;12.362;2023-08-20T14:54:19;161745.28;;;28.55
71897;BMP280;59767;51.344;12.362;2023-08-20T14:57:24;162350.13;;;28.51
71897;BMP280;59767;51.344;12.362;2023-08-20T15:00:37;162932.50;;;28.45
71897;BMP280;59767;51.344;12.362;2023-08-20T15:03:42;163221.78;;;28.42
71897;BMP280;59767;51.344;12.362;2023-08-20T15:06:46;163095.16;;;28.43
71897;BMP280;59767;51.344;12.362;2023-08-20T15:09:50;163255.09;;;28.41
71897;BMP280;59767;51.344;12.362;2023-08-20T15:12:55;163356.31;;;28.41
71897;BMP280;59767;51.344;12.362;2023-08-20T15:15:59;164338.63;;;28.31
71897;BMP280;59767;51.344;12.362;2023-08-20T15:19:03;165026.44;;;28.21
71897;BMP280;59767;51.344;12.362;2023-08-20T15:22:07;164353.28;;;28.29
71897;BMP280;59767;51.344;12.362;2023-08-20T15:25:11;164679.84;;;28.26
71897;BMP280;59767;51.344;12.362;2023-08-20T15:28:15;164445.31;;;28.28
71897;BMP280;59767;51.344;12.362;2023-08-20T15:31:19;165627.63;;;28.12
71897;BMP280;59767;51.344;12.362;2023-08-20T15:34:23;165736.94;;;28.10
71897;BMP280;59767;51.344;12.362;2023-08-20T15:37:27;165538.31;;;28.13
71897;BMP280;59767;51.344;12.362;2023-08-20T15:40:31;164851.91;;;28.23
71897;BMP280;59767;51.344;12.362;2023-08-20T15:43:35;165355.75;;;28.15
71897;BMP280;59767;51.344;12.362;2023-08-20T15:46:39;165589.03;;;28.11
71897;BMP280;59767;51.344;12.362;2023-08-20T15:49:44;165590.31;;;28.12
71897;BMP280;59767;51.344;12.362;2023-08-20T15:52:48;164678.56;;;28.26
71897;BMP280;59767;51.344;12.362;2023-08-20T15:55:52;165098.47;;;28.19
71897;BMP280;59767;51.344;12.362;2023-08-20T15:58:57;164677.25;;;28.25
71897;BMP280;59767;51.344;12.362;2023-08-20T16:02:01;165824.91;;;28.08
71897;BMP280;59767;51.344;12.362;2023-08-20T16:05:05;165946.31;;;28.01
71897;BMP280;59767;51.344;12.362;2023-08-20T16:08:10;165955.56;;;28.05
71897;BMP280;59767;51.344;12.362;2023-08-20T16:11:15;165950.31;;;28.03
71897;BMP280;59767;51.344;12.362;2023-08-20T16:14:20;165806.28;;;28.08
71897;BMP280;59767;51.344;12.362;2023-08-20T16:17:25;165949.00;;;28.02
71897;BMP280;59767;51.344;12.362;2023-08-20T16:20:29;165917.38;;;27.90
71897;BMP280;59767;51.344;12.362;2023-08-20T16:23:34;165905.50;;;27.86
71897;BMP280;59767;51.344;12.362;2023-08-20T16:26:38;165920.00;;;27.91
71897;BMP280;59767;51.344;12.362;2023-08-20T16:29:42;165916.09;;;27.90
71897;BMP280;59767;51.344;12.362;2023-08-20T16:32:47;165923.97;;;27.93
71897;BMP280;59767;51.344;12.362;2023-08-20T16:35:51;165891.06;;;27.80
71897;BMP280;59767;51.344;12.362;2023-08-20T16:38:55;165892.34;;;27.81
71897;BMP280;59767;51.344;12.362;2023-08-20T16:42:00;165871.25;;;27.73
71897;BMP280;59767;51.344;12.362;2023-08-20T16:45:04;165871.25;;;27.73
71897;BMP280;59767;51.344;12.362;2023-08-20T16:48:09;165876.56;;;27.75
71897;BMP280;59767;51.344;12.362;2023-08-20T16:51:14;165876.56;;;27.75
71897;BMP280;59767;51.344;12.362;2023-08-20T16:54:19;165848.91;;;27.64
71897;BMP280;59767;51.344;12.362;2023-08-20T16:57:23;165843.63;;;27.62
71897;BMP280;59767;51.344;12.362;2023-08-20T17:00:27;165848.91;;;27.64
71897;BMP280;59767;51.344;12.362;2023-08-20T17:03:31;165827.84;;;27.56
71897;BMP280;59767;51.344;12.362;2023-08-20T17:06:36;165810.72;;;27.50
71897;BMP280;59767;51.344;12.362;2023-08-20T17:09:40;165813.34;;;27.51
71897;BMP280;59767;51.344;12.362;2023-08-20T17:12:45;165809.38;;;27.49
71897;BMP280;59767;51.344;12.362;2023-08-20T17:15:50;165794.94;;;27.44
71897;BMP280;59767;51.344;12.362;2023-08-20T17:18:55;165808.09;;;27.49
71897;BMP280;59767;51.344;12.362;2023-08-20T17:22:00;165783.06;;;27.39
71897;BMP280;59767;51.344;12.362;2023-08-20T17:25:05;165780.44;;;27.38
71897;BMP280;59767;51.344;12.362;2023-08-20T17:28:09;165781.78;;;27.39
71897;BMP280;59767;51.344;12.362;2023-08-20T17:31:14;165775.13;;;27.36
71897;BMP280;59767;51.344;12.362;2023-08-20T17:34:18;165763.31;;;27.32
71897;BMP280;59767;51.344;12.362;2023-08-20T17:37:22;165750.09;;;27.27
71897;BMP280;59767;51.344;12.362;2023-08-20T17:40:27;165743.53;;;27.24
71897;BMP280;59767;51.344;12.362;2023-08-20T17:43:31;165727.75;;;27.18
71897;BMP280;59767;51.344;12.362;2023-08-20T17:46:43;165721.16;;;27.16
71897;BMP280;59767;51.344;12.362;2023-08-20T17:49:47;165705.38;;;27.10
71897;BMP280;59767;51.344;12.362;2023-08-20T17:52:51;165696.13;;;27.06
71897;BMP280;59767;51.344;12.362;2023-08-20T17:55:55;165686.94;;;27.03
71897;BMP280;59767;51.344;12.362;2023-08-20T17:59:02;165686.94;;;27.03
71897;BMP280;59767;51.344;12.362;2023-08-20T18:02:07;165676.38;;;26.99
71897;BMP280;59767;51.344;12.362;2023-08-20T18:05:11;165654.00;;;26.90
71897;BMP280;59767;51.344;12.362;2023-08-20T18:08:16;165628.97;;;26.81
71897;BMP280;59767;51.344;12.362;2023-08-20T18:11:20;165621.09;;;26.78
71897;BMP280;59767;51.344;12.362;2023-08-20T18:14:25;165613.19;;;26.75
71897;BMP280;59767;51.344;12.362;2023-08-20T18:17:29;165602.69;;;26.71
71897;BMP280;59767;51.344;12.362;2023-08-20T18:20:33;165586.88;;;26.65
71897;BMP280;59767;51.344;12.362;2023-08-20T18:23:37;165565.84;;;26.57
71897;BMP280;59767;51.344;12.362;2023-08-20T18:26:42;165551.34;;;26.52
71897;BMP280;59767;51.344;12.362;2023-08-20T18:29:46;165540.84;;;26.48
71897;BMP280;59767;51.344;12.362;2023-08-20T18:32:50;165536.88;;;26.46
71897;BMP280;59767;51.344;12.362;2023-08-20T18:35:58;165527.63;;;26.43
71897;BMP280;59767;51.344;12.362;2023-08-20T18:39:02;165509.22;;;26.36
71897;BMP280;59767;51.344;12.362;2023-08-20T18:42:08;165477.63;;;26.24
71897;BMP280;59767;51.344;12.362;2023-08-20T18:45:12;165468.44;;;26.20
71897;BMP280;59767;51.344;12.362;2023-08-20T18:48:16;165460.50;;;26.17
71897;BMP280;59767;51.344;12.362;2023-08-20T18:51:25;165451.31;;;26.14
71897;BMP280;59767;51.344;12.362;2023-08-20T18:54:29;165444.72;;;26.11
71897;BMP280;59767;51.344;12.362;2023-08-20T18:57:33;165431.56;;;26.06
71897;BMP280;59767;51.344;12.362;2023-08-20T19:00:38;165428.91;;;26.05
71897;BMP280;59767;51.344;12.362;2023-08-20T19:03:42;165419.72;;;26.02
71897;BMP280;59767;51.344;12.362;2023-08-20T19:06:50;165418.38;;;26.01
71897;BMP280;59767;51.344;12.362;2023-08-20T19:09:54;165418.38;;;26.01
71897;BMP280;59767;51.344;12.362;2023-08-20T19:13:00;165414.47;;;26.00
71897;BMP280;59767;51.344;12.362;2023-08-20T19:16:04;165401.25;;;25.95
71897;BMP280;59767;51.344;12.362;2023-08-20T19:19:08;165384.16;;;25.88
71897;BMP280;59767;51.344;12.362;2023-08-20T19:22:13;165376.25;;;25.85
71897;BMP280;59767;51.344;12.362;2023-08-20T19:25:17;165361.81;;;25.80
71897;BMP280;59767;51.344;12.362;2023-08-20T19:28:21;165349.91;;;25.75
71897;BMP280;59767;51.344;12.362;2023-08-20T19:31:26;165340.78;;;25.72
71897;BMP280;59767;51.344;12.362;2023-08-20T19:34:30;165330.22;;;25.68
71897;BMP280;59767;51.344;12.362;2023-08-20T19:37:35;165330.22;;;25.68
71897;BMP280;59767;51.344;12.362;2023-08-20T19:40:39;165310.47;;;25.60
71897;BMP280;59767;51.344;12.362;2023-08-20T19:43:43;165299.91;;;25.56
71897;BMP280;59767;51.344;12.362;2023-08-20T19:46:47;165290.75;;;25.53
71897;BMP280;59767;51.344;12.362;2023-08-20T19:49:51;165285.50;;;25.51
71897;BMP280;59767;51.344;12.362;2023-08-20T19:52:55;165268.38;;;25.44
71897;BMP280;59767;51.344;12.362;2023-08-20T19:56:00;165255.19;;;25.39
71897;BMP280;59767;51.344;12.362;2023-08-20T19:59:04;165242.03;;;25.34
71897;BMP280;59767;51.344;12.362;2023-08-20T20:02:08;165234.16;;;25.31
71897;BMP280;59767;51.344;12.362;2023-08-20T20:05:12;165236.78;;;25.32
71897;BMP280;59767;51.344;12.362;2023-08-20T20:08:16;165222.31;;;25.27
71897;BMP280;59767;51.344;12.362;2023-08-20T20:11:21;165217.03;;;25.25
71897;BMP280;59767;51.344;12.362;2023-08-20T20:14:26;165210.50;;;25.22
71897;BMP280;59767;51.344;12.362;2023-08-20T20:17:30;165198.66;;;25.18
71897;BMP280;59767;51.344;12.362;2023-08-20T20:20:34;165193.38;;;25.16
71897;BMP280;59767;51.344;12.362;2023-08-20T20:23:38;165190.75;;;25.15
71897;BMP280;59767;51.344;12.362;2023-08-20T20:26:42;165173.66;;;25.08
71897;BMP280;59767;51.344;12.362;2023-08-20T20:29:47;165165.78;;;25.05
71897;BMP280;59767;51.344;12.362;2023-08-20T20:32:51;165165.78;;;25.05
71897;BMP280;59767;51.344;12.362;2023-08-20T20:35:56;165153.88;;;25.01
71897;BMP280;59767;51.344;12.362;2023-08-20T20:39:00;165142.03;;;24.96
71897;BMP280;59767;51.344;12.362;2023-08-20T20:42:06;165136.75;;;24.94
71897;BMP280;59767;51.344;12.362;2023-08-20T20:45:10;165127.59;;;24.91
71897;BMP280;59767;51.344;12.362;2023-08-20T20:48:15;165118.38;;;24.88
71897;BMP280;59767;51.344;12.362;2023-08-20T20:51:19;165127.59;;;24.91
71897;BMP280;59767;51.344;12.362;2023-08-20T20:54:24;165126.25;;;24.90
71897;BMP280;59767;51.344;12.362;2023-08-20T20:57:28;165126.25;;;24.90
71897;BMP280;59767;51.344;12.362;2023-08-20T21:00:35;165136.75;;;24.94
71897;BMP280;59767;51.344;12.362;2023-08-20T21:03:39;165170.97;;;25.07
71897;BMP280;59767;51.344;12.362;2023-08-20T21:06:44;165149.91;;;24.99
71897;BMP280;59767;51.344;12.362;2023-08-20T21:09:50;165172.31;;;25.08
71897;BMP280;59767;51.344;12.362;2023-08-20T21:12:54;165153.88;;;25.01
71897;BMP280;59767;51.344;12.362;2023-08-20T21:15:58;165142.03;;;24.96
71897;BMP280;59767;51.344;12.362;2023-08-20T21:19:03;165136.75;;;24.94
71897;BMP280;59767;51.344;12.362;2023-08-20T21:22:12;165122.34;;;24.89
71897;BMP280;59767;51.344;12.362;2023-08-20T21:25:16;165114.41;;;24.86
71897;BMP280;59767;51.344;12.362;2023-08-20T21:28:21;165101.25;;;24.81
71897;BMP280;59767;51.344;12.362;2023-08-20T21:31:25;165094.72;;;24.79
71897;BMP280;59767;51.344;12.362;2023-08-20T21:34:30;165094.72;;;24.79
71897;BMP280;59767;51.344;12.362;2023-08-20T21:37:34;165086.78;;;24.76
71897;BMP280;59767;51.344;12.362;2023-08-20T21:40:38;165080.19;;;24.73
71897;BMP280;59767;51.344;12.362;2023-08-20T21:43:42;165065.72;;;24.68
71897;BMP280;59767;51.344;12.362;2023-08-20T21:46:53;165048.66;;;24.61
71897;BMP280;59767;51.344;12.362;2023-08-20T21:49:58;165042.06;;;24.59
71897;BMP280;59767;51.344;12.362;2023-08-20T21:53:02;165059.16;;;24.65
71897;BMP280;59767;51.344;12.362;2023-08-20T21:56:07;165045.97;;;24.60
71897;BMP280;59767;51.344;12.362;2023-08-20T21:59:11;165039.44;;;24.58
71897;BMP280;59767;51.344;12.362;2023-08-20T22:02:16;165042.06;;;24.59
71897;BMP280;59767;51.344;12.362;2023-08-20T22:05:21;165044.69;;;24.60
71897;BMP280;59767;51.344;12.362;2023-08-20T22:08:25;165048.66;;;24.61
71897;BMP280;59767;51.344;12.362;2023-08-20T22:11:29;165073.66;;;24.71
71897;BMP280;59767;51.344;12.362;2023-08-20T22:14:33;165074.94;;;24.71
71897;BMP280;59767;51.344;12.362;2023-08-20T22:17:37;165064.44;;;24.67
71897;BMP280;59767;51.344;12.362;2023-08-20T22:20:41;165069.69;;;24.69
71897;BMP280;59767;51.344;12.362;2023-08-20T22:23:45;165057.84;;;24.65
71897;BMP280;59767;51.344;12.362;2023-08-20T22:26:49;165057.84;;;24.65
71897;BMP280;59767;51.344;12.362;2023-08-20T22:29:54;165039.44;;;24.58
71897;BMP280;59767;51.344;12.362;2023-08-20T22:32:58;165032.84;;;24.55
71897;BMP280;59767;51.344;12.362;2023-08-20T22:36:02;165013.13;;;24.48
71897;BMP280;59767;51.344;12.362;2023-08-20T22:39:06;165009.16;;;24.46
71897;BMP280;59767;51.344;12.362;2023-08-20T22:42:10;165002.63;;;24.44
71897;BMP280;59767;51.344;12.362;2023-08-20T22:45:14;165005.25;;;24.45
71897;BMP280;59767;51.344;12.362;2023-08-20T22:48:19;164992.06;;;24.40
71897;BMP280;59767;51.344;12.362;2023-08-20T22:51:23;164984.16;;;24.37
71897;BMP280;59767;51.344;12.362;2023-08-20T22:54:27;164976.28;;;24.34
71897;BMP280;59767;51.344;12.362;2023-08-20T22:57:31;164973.66;;;24.33
71897;BMP280;59767;51.344;12.362;2023-08-20T23:00:35;164956.56;;;24.26
71897;BMP280;59767;51.344;12.362;2023-08-20T23:03:39;164952.59;;;24.25
71897;BMP280;59767;51.344;12.362;2023-08-20T23:06:43;164940.75;;;24.20
71897;BMP280;59767;51.344;12.362;2023-08-20T23:09:47;164921.03;;;24.13
71897;BMP280;59767;51.344;12.362;2023-08-20T23:12:51;164905.25;;;24.07
71897;BMP280;59767;51.344;12.362;2023-08-20T23:15:55;164902.63;;;24.06
71897;BMP280;59767;51.344;12.362;2023-08-20T23:19:00;164901.28;;;24.05
71897;BMP280;59767;51.344;12.362;2023-08-20T23:22:04;164901.28;;;24.05
71897;BMP280;59767;51.344;12.362;2023-08-20T23:25:08;164894.72;;;24.03
71897;BMP280;59767;51.344;12.362;2023-08-20T23:28:13;164878.94;;;23.97
71897;BMP280;59767;51.344;12.362;2023-08-20T23:31:17;164871.03;;;23.94
71897;BMP280;59767;51.344;12.362;2023-08-20T23:34:21;164869.69;;;23.93
71897;BMP280;59767;51.344;12.362;2023-08-20T23:37:25;164878.94;;;23.97
71897;BMP280;59767;51.344;12.362;2023-08-20T23:40:29;164865.75;;;23.92
71897;BMP280;59767;51.344;12.362;2023-08-20T23:43:33;164860.50;;;23.90
71897;BMP280;59767;51.344;12.362;2023-08-20T23:46:37;164886.81;;;24.00
71897;BMP280;59767;51.344;12.362;2023-08-20T23:49:51;164890.75;;;24.01
71897;BMP280;59767;51.344;12.362;2023-08-20T23:52:55;164872.38;;;23.94
71897;BMP280;59767;51.344;12.362;2023-08-20T23:55:59;164855.25;;;23.88
71897;BMP280;59767;51.344;12.362;2023-08-20T23:59:03;164831.63;;;23.79
